createdAt,value
2017-05-09T00:00:12.964Z,21.7
2017-05-09T00:01:21.135Z,21.7
2017-05-09T00:02:29.143Z,21.7
2017-05-09T00:03:37.227Z,21.7
2017-05-09T00:04:45.320Z,21.7
2017-05-09T00:05:56.117Z,21.6
2017-05-09T00:07:01.490Z,21.7
2017-05-09T00:08:09.578Z,21.8
2017-05-09T00:09:17.665Z,21.7
2017-05-09T00:10:25.755Z,21.7
2017-05-09T00:11:33.839Z,21.7
2017-05-09T00:12:41.939Z,21.8
2017-05-09T00:13:50.016Z,21.7
2017-05-09T00:14:58.127Z,21.8
2017-05-09T00:16:06.193Z,21.7
2017-05-09T00:17:14.293Z,21.7
2017-05-09T00:18:22.459Z,21.7
2017-05-09T00:19:30.461Z,21.7
2017-05-09T00:20:38.550Z,21.7
2017-05-09T00:21:46.636Z,21.6
2017-05-09T00:22:54.722Z,21.6
2017-05-09T00:24:02.809Z,21.6
2017-05-09T00:25:10.898Z,21.7
2017-05-09T00:26:18.985Z,21.6
2017-05-09T00:27:27.070Z,21.6
2017-05-09T00:28:35.158Z,21.7
2017-05-09T00:29:43.245Z,21.6
2017-05-09T00:30:51.334Z,21.6
2017-05-09T00:31:59.421Z,21.6
2017-05-09T00:33:07.529Z,21.7
2017-05-09T00:34:15.593Z,21.6
2017-05-09T00:35:23.679Z,21.6
2017-05-09T00:36:31.767Z,21.6
2017-05-09T00:37:39.855Z,21.8
2017-05-09T00:38:47.942Z,21.7
2017-05-09T00:39:56.031Z,21.5
2017-05-09T00:41:04.116Z,21.7
2017-05-09T00:42:12.203Z,21.7
2017-05-09T00:43:20.288Z,21.7
2017-05-09T00:44:28.372Z,21.7
2017-05-09T00:45:36.463Z,21.7
2017-05-09T00:46:44.548Z,21.7
2017-05-09T00:47:52.636Z,21.7
2017-05-09T00:49:00.721Z,21.6
2017-05-09T00:50:08.811Z,21.6
2017-05-09T00:51:16.897Z,21.6
2017-05-09T00:52:24.993Z,21.6
2017-05-09T00:53:33.071Z,21.7
2017-05-09T00:54:41.168Z,21.6
2017-05-09T00:55:49.245Z,21.6
2017-05-09T00:56:57.333Z,21.7
2017-05-09T00:58:05.420Z,21.6
2017-05-09T00:59:13.516Z,21.6
2017-05-09T01:00:21.595Z,21.6
2017-05-09T01:01:29.682Z,21.6
2017-05-09T01:02:37.766Z,21.6
2017-05-09T01:03:45.853Z,21.6
2017-05-09T01:04:53.940Z,21.5
2017-05-09T01:06:02.026Z,21.5
2017-05-09T01:07:10.116Z,21.5
2017-05-09T01:08:18.200Z,21.5
2017-05-09T01:09:26.295Z,21.6
2017-05-09T01:10:34.379Z,21.5
2017-05-09T01:11:42.499Z,21.5
2017-05-09T01:12:50.554Z,21.5
2017-05-09T01:13:58.642Z,21.5
2017-05-09T01:15:06.736Z,21.5
2017-05-09T01:16:14.818Z,21.5
2017-05-09T01:17:22.901Z,21.4
2017-05-09T01:18:30.988Z,21.5
2017-05-09T01:19:39.079Z,21.4
2017-05-09T01:20:47.161Z,21.4
2017-05-09T01:21:55.247Z,21.4
2017-05-09T01:23:03.335Z,21.4
2017-05-09T01:24:11.421Z,21.5
2017-05-09T01:25:19.506Z,21.4
2017-05-09T01:26:27.593Z,21.4
2017-05-09T01:27:35.681Z,21.4
2017-05-09T01:28:43.770Z,21.4
2017-05-09T01:29:51.857Z,21.3
2017-05-09T01:30:59.940Z,21.4
2017-05-09T01:32:08.028Z,21.4
2017-05-09T01:33:16.113Z,21.4
2017-05-09T01:34:24.203Z,21.3
2017-05-09T01:35:32.288Z,21.3
2017-05-09T01:36:40.381Z,21.3
2017-05-09T01:37:48.467Z,21.3
2017-05-09T01:38:56.560Z,21.4
2017-05-09T01:40:04.644Z,21.3
2017-05-09T01:41:12.732Z,21.3
2017-05-09T01:42:20.821Z,21.3
2017-05-09T01:43:28.931Z,21.4
2017-05-09T01:44:36.995Z,21.3
2017-05-09T01:45:45.081Z,21.3
2017-05-09T01:46:53.168Z,21.2
2017-05-09T01:48:01.253Z,21.2
2017-05-09T01:49:09.339Z,21.3
2017-05-09T01:50:17.424Z,21.3
2017-05-09T01:51:25.511Z,21.2
2017-05-09T01:52:33.609Z,21.2
2017-05-09T01:53:41.687Z,21.2
2017-05-09T01:54:49.771Z,21.2
2017-05-09T01:55:57.858Z,21.1
2017-05-09T01:57:06.962Z,21.1
2017-05-09T01:58:14.033Z,21.3
2017-05-09T01:59:22.119Z,21.2
2017-05-09T02:00:30.203Z,21.1
2017-05-09T02:01:38.289Z,21.2
2017-05-09T02:02:46.377Z,21.2
2017-05-09T02:03:54.464Z,21.2
2017-05-09T02:05:02.649Z,21.2
2017-05-09T02:06:10.636Z,21.2
2017-05-09T02:07:18.730Z,21.1
2017-05-09T02:08:26.814Z,21.0
2017-05-09T02:09:34.895Z,21.1
2017-05-09T02:10:42.982Z,21.0
2017-05-09T02:11:51.069Z,21.1
2017-05-09T02:12:59.155Z,21.1
2017-05-09T02:14:07.243Z,21.0
2017-05-09T02:15:15.329Z,21.0
2017-05-09T02:16:23.414Z,21.1
2017-05-09T02:17:31.502Z,21.1
2017-05-09T02:18:39.587Z,21.0
2017-05-09T02:19:47.675Z,21.1
2017-05-09T02:20:55.762Z,21.1
2017-05-09T02:22:03.846Z,21.1
2017-05-09T02:23:11.935Z,21.1
2017-05-09T02:24:20.020Z,21.1
2017-05-09T02:25:28.111Z,21.0
2017-05-09T02:26:36.199Z,21.0
2017-05-09T02:27:44.280Z,21.0
2017-05-09T02:28:52.380Z,20.9
2017-05-09T02:30:00.857Z,21.0
2017-05-09T02:31:08.560Z,20.9
2017-05-09T02:32:16.623Z,20.9
2017-05-09T02:33:24.715Z,21.0
2017-05-09T02:34:32.795Z,20.9
2017-05-09T02:35:40.882Z,20.9
2017-05-09T02:36:48.970Z,20.9
2017-05-09T02:37:57.054Z,20.9
2017-05-09T02:39:05.142Z,20.9
2017-05-09T02:40:13.225Z,20.9
2017-05-09T02:41:21.313Z,20.9
2017-05-09T02:42:29.398Z,20.9
2017-05-09T02:43:37.485Z,20.9
2017-05-09T02:44:45.571Z,20.9
2017-05-09T02:45:53.657Z,20.9
2017-05-09T02:47:01.743Z,20.9
2017-05-09T02:48:09.830Z,20.8
2017-05-09T02:49:17.915Z,20.9
2017-05-09T02:50:26.001Z,20.8
2017-05-09T02:51:34.089Z,20.9
2017-05-09T02:52:42.174Z,20.8
2017-05-09T02:53:50.261Z,20.8
2017-05-09T02:54:58.346Z,20.8
2017-05-09T02:56:06.432Z,20.8
2017-05-09T02:57:14.518Z,20.9
2017-05-09T02:58:22.605Z,20.8
2017-05-09T02:59:30.688Z,20.8
2017-05-09T03:00:38.773Z,20.8
2017-05-09T03:01:46.860Z,20.7
2017-05-09T03:02:54.945Z,20.7
2017-05-09T03:04:03.031Z,20.7
2017-05-09T03:05:11.120Z,20.8
2017-05-09T03:06:19.203Z,20.7
2017-05-09T03:07:27.291Z,20.7
2017-05-09T03:08:35.376Z,20.7
2017-05-09T03:09:43.462Z,20.7
2017-05-09T03:10:51.546Z,20.7
2017-05-09T03:11:59.631Z,20.7
2017-05-09T03:13:07.726Z,20.7
2017-05-09T03:14:15.811Z,20.6
2017-05-09T03:15:23.900Z,20.6
2017-05-09T03:16:31.983Z,20.6
2017-05-09T03:17:40.073Z,20.6
2017-05-09T03:18:48.160Z,20.6
2017-05-09T03:19:56.246Z,20.6
2017-05-09T03:21:04.333Z,20.6
2017-05-09T03:22:12.419Z,20.5
2017-05-09T03:23:20.505Z,20.5
2017-05-09T03:24:28.590Z,20.5
2017-05-09T03:25:36.675Z,20.5
2017-05-09T03:26:44.761Z,20.5
2017-05-09T03:27:52.849Z,20.5
2017-05-09T03:29:00.940Z,20.5
2017-05-09T03:30:09.025Z,20.5
2017-05-09T03:31:17.104Z,20.4
2017-05-09T03:32:25.190Z,20.5
2017-05-09T03:33:33.276Z,20.5
2017-05-09T03:34:41.363Z,20.4
2017-05-09T03:35:49.447Z,20.4
2017-05-09T03:36:57.532Z,20.4
2017-05-09T03:38:05.619Z,20.5
2017-05-09T03:39:13.729Z,20.3
2017-05-09T03:40:21.791Z,20.5
2017-05-09T03:41:29.876Z,20.5
2017-05-09T03:42:37.961Z,20.5
2017-05-09T03:43:46.047Z,20.5
2017-05-09T03:44:54.132Z,20.5
2017-05-09T03:46:02.219Z,20.4
2017-05-09T03:47:10.357Z,20.4
2017-05-09T03:48:18.393Z,20.3
2017-05-09T03:49:26.477Z,20.3
2017-05-09T03:50:34.562Z,20.4
2017-05-09T03:51:43.648Z,20.4
2017-05-09T03:52:50.734Z,20.4
2017-05-09T03:53:58.820Z,20.3
2017-05-09T03:55:06.904Z,20.4
2017-05-09T03:56:15.013Z,20.4
2017-05-09T03:57:23.072Z,20.4
2017-05-09T03:58:31.159Z,20.3
2017-05-09T03:59:39.245Z,20.4
2017-05-09T04:00:47.331Z,20.3
2017-05-09T04:01:55.416Z,20.3
2017-05-09T04:03:03.501Z,20.4
2017-05-09T04:04:11.666Z,20.3
2017-05-09T04:05:19.671Z,20.3
2017-05-09T04:06:27.756Z,20.2
2017-05-09T04:07:35.850Z,20.3
2017-05-09T04:08:43.930Z,20.2
2017-05-09T04:09:52.012Z,20.3
2017-05-09T04:11:00.099Z,20.2
2017-05-09T04:12:08.188Z,20.2
2017-05-09T04:13:16.269Z,20.2
2017-05-09T04:14:24.382Z,20.2
2017-05-09T04:15:32.442Z,20.2
2017-05-09T04:16:40.527Z,20.2
2017-05-09T04:17:48.613Z,20.2
2017-05-09T04:18:56.700Z,20.2
2017-05-09T04:20:04.786Z,20.1
2017-05-09T04:21:12.967Z,20.2
2017-05-09T04:22:20.959Z,20.1
2017-05-09T04:23:29.049Z,20.2
2017-05-09T04:24:37.136Z,20.2
2017-05-09T04:25:45.220Z,20.2
2017-05-09T04:26:53.305Z,20.2
2017-05-09T04:28:01.391Z,20.1
2017-05-09T04:29:09.476Z,20.1
2017-05-09T04:30:17.590Z,20.0
2017-05-09T04:31:25.652Z,20.1
2017-05-09T04:32:33.732Z,20.1
2017-05-09T04:33:42.813Z,20.1
2017-05-09T04:34:49.904Z,20.0
2017-05-09T04:35:57.988Z,20.1
2017-05-09T04:37:06.072Z,20.1
2017-05-09T04:38:14.243Z,20.1
2017-05-09T04:39:22.245Z,20.1
2017-05-09T04:40:30.342Z,20.1
2017-05-09T04:41:38.414Z,20.0
2017-05-09T04:42:46.500Z,20.0
2017-05-09T04:43:54.584Z,20.0
2017-05-09T04:45:02.669Z,20.0
2017-05-09T04:46:10.754Z,20.0
2017-05-09T04:47:18.852Z,20.0
2017-05-09T04:48:26.928Z,20.0
2017-05-09T04:49:35.016Z,20.0
2017-05-09T04:50:43.095Z,20.0
2017-05-09T04:51:51.183Z,20.0
2017-05-09T04:52:59.513Z,20.0
2017-05-09T04:54:07.350Z,19.9
2017-05-09T04:55:15.521Z,20.0
2017-05-09T04:56:23.519Z,19.9
2017-05-09T04:57:31.607Z,19.9
2017-05-09T04:58:39.693Z,20.0
2017-05-09T04:59:47.776Z,20.0
2017-05-09T05:00:55.865Z,20.0
2017-05-09T05:02:03.950Z,19.9
2017-05-09T05:03:12.063Z,19.9
2017-05-09T05:04:20.141Z,19.8
2017-05-09T05:05:28.213Z,19.9
2017-05-09T05:06:36.292Z,19.9
2017-05-09T05:07:44.378Z,19.9
2017-05-09T05:08:52.506Z,19.8
2017-05-09T05:10:00.552Z,19.9
2017-05-09T05:11:08.635Z,19.9
2017-05-09T05:12:16.758Z,19.9
2017-05-09T05:13:24.804Z,19.9
2017-05-09T05:14:32.890Z,19.8
2017-05-09T05:15:40.989Z,19.7
2017-05-09T05:16:49.067Z,19.8
2017-05-09T05:17:57.157Z,19.7
2017-05-09T05:19:05.245Z,19.7
2017-05-09T05:20:13.334Z,19.7
2017-05-09T05:21:21.419Z,19.7
2017-05-09T05:22:29.493Z,19.8
2017-05-09T05:23:37.579Z,19.8
2017-05-09T05:24:45.687Z,19.8
2017-05-09T05:25:53.755Z,19.8
2017-05-09T05:27:01.839Z,19.7
2017-05-09T05:28:09.940Z,19.8
2017-05-09T05:29:18.012Z,19.8
2017-05-09T05:30:26.095Z,19.7
2017-05-09T05:31:34.190Z,19.7
2017-05-09T05:32:42.280Z,19.7
2017-05-09T05:33:50.368Z,19.7
2017-05-09T05:34:58.456Z,19.7
2017-05-09T05:37:16.231Z,19.7
2017-05-09T05:38:24.317Z,19.7
2017-05-09T05:39:32.400Z,19.7
2017-05-09T05:40:40.484Z,19.6
2017-05-09T05:41:48.575Z,19.6
2017-05-09T05:42:56.670Z,19.7
2017-05-09T05:44:04.753Z,19.7
2017-05-09T05:45:12.841Z,19.7
2017-05-09T05:46:20.922Z,19.6
2017-05-09T05:47:30.008Z,19.7
2017-05-09T05:48:37.094Z,19.7
2017-05-09T05:49:45.177Z,19.7
2017-05-09T05:50:53.263Z,19.7
2017-05-09T05:52:01.346Z,19.6
2017-05-09T05:53:09.432Z,19.7
2017-05-09T05:54:17.520Z,19.6
2017-05-09T05:55:25.607Z,19.6
2017-05-09T05:56:33.687Z,19.6
2017-05-09T05:57:41.773Z,19.6
2017-05-09T05:58:49.859Z,19.6
2017-05-09T05:59:57.944Z,19.6
2017-05-09T06:01:06.028Z,19.6
2017-05-09T06:02:14.118Z,19.6
2017-05-09T06:03:22.200Z,19.6
2017-05-09T06:04:30.287Z,19.6
2017-05-09T06:05:40.325Z,19.6
2017-05-09T06:06:46.452Z,19.6
2017-05-09T06:07:54.542Z,19.5
2017-05-09T06:09:02.621Z,19.6
2017-05-09T06:10:10.962Z,19.6
2017-05-09T06:11:18.797Z,19.6
2017-05-09T06:12:26.883Z,19.6
2017-05-09T06:13:34.969Z,19.5
2017-05-09T06:14:43.062Z,19.5
2017-05-09T06:15:51.159Z,19.6
2017-05-09T06:16:59.238Z,19.5
2017-05-09T06:18:07.333Z,19.6
2017-05-09T06:19:15.431Z,19.6
2017-05-09T06:20:23.516Z,19.5
2017-05-09T06:21:32.608Z,19.5
2017-05-09T06:22:39.682Z,19.5
2017-05-09T06:23:47.766Z,19.6
2017-05-09T06:24:55.852Z,19.6
2017-05-09T06:26:03.939Z,19.5
2017-05-09T06:27:12.026Z,19.5
2017-05-09T06:28:20.105Z,19.5
2017-05-09T06:29:28.191Z,19.5
2017-05-09T06:30:36.276Z,19.4
2017-05-09T06:31:44.365Z,19.4
2017-05-09T06:32:52.447Z,19.5
2017-05-09T06:34:00.537Z,19.5
2017-05-09T06:35:08.618Z,19.4
2017-05-09T06:36:16.703Z,19.4
2017-05-09T06:37:24.805Z,19.4
2017-05-09T06:38:32.879Z,19.5
2017-05-09T06:39:40.968Z,19.4
2017-05-09T06:40:49.048Z,19.4
2017-05-09T06:41:57.164Z,19.4
2017-05-09T06:43:05.220Z,19.4
2017-05-09T06:44:13.305Z,19.5
2017-05-09T06:45:21.432Z,19.4
2017-05-09T06:46:29.472Z,19.4
2017-05-09T06:47:37.559Z,19.4
2017-05-09T06:48:45.643Z,19.4
2017-05-09T06:49:53.729Z,19.4
2017-05-09T06:51:01.814Z,19.4
2017-05-09T06:52:09.900Z,19.3
2017-05-09T06:53:17.986Z,19.4
2017-05-09T06:54:26.070Z,19.4
2017-05-09T06:55:34.153Z,19.4
2017-05-09T06:56:42.238Z,19.4
2017-05-09T06:57:50.325Z,19.4
2017-05-09T06:58:58.408Z,19.4
2017-05-09T07:00:06.519Z,19.4
2017-05-09T07:01:14.580Z,19.4
2017-05-09T07:02:22.664Z,19.4
2017-05-09T07:03:30.751Z,19.4
2017-05-09T07:04:38.843Z,19.3
2017-05-09T07:05:46.928Z,19.3
2017-05-09T07:06:55.011Z,19.4
2017-05-09T07:08:03.099Z,19.4
2017-05-09T07:09:11.183Z,19.3
2017-05-09T07:10:19.271Z,19.3
2017-05-09T07:11:27.353Z,19.4
2017-05-09T07:12:35.436Z,19.3
2017-05-09T07:13:43.523Z,19.2
2017-05-09T07:14:51.607Z,19.2
2017-05-09T07:15:59.693Z,19.3
2017-05-09T07:17:07.812Z,19.3
2017-05-09T07:18:15.861Z,19.3
2017-05-09T07:19:23.950Z,19.2
2017-05-09T07:20:32.032Z,19.3
2017-05-09T07:21:40.119Z,19.2
2017-05-09T07:22:48.202Z,19.3
2017-05-09T07:23:56.287Z,19.2
2017-05-09T07:25:04.370Z,19.3
2017-05-09T07:26:12.458Z,19.2
2017-05-09T07:27:20.540Z,19.3
2017-05-09T07:28:28.633Z,19.2
2017-05-09T07:29:36.711Z,19.3
2017-05-09T07:30:44.796Z,19.2
2017-05-09T07:31:52.884Z,19.3
2017-05-09T07:33:00.966Z,19.3
2017-05-09T07:34:09.050Z,19.3
2017-05-09T07:35:17.136Z,19.2
2017-05-09T07:36:27.181Z,19.3
2017-05-09T07:37:33.306Z,19.3
2017-05-09T07:38:41.390Z,19.2
2017-05-09T07:39:49.475Z,19.2
2017-05-09T07:40:57.569Z,19.2
2017-05-09T07:42:05.651Z,19.2
2017-05-09T07:43:13.765Z,19.2
2017-05-09T07:44:21.821Z,19.3
2017-05-09T07:45:29.906Z,19.3
2017-05-09T07:46:37.994Z,19.2
2017-05-09T07:47:46.088Z,19.2
2017-05-09T07:48:54.345Z,19.2
2017-05-09T07:50:02.264Z,19.2
2017-05-09T07:51:10.339Z,19.2
2017-05-09T07:52:18.422Z,19.2
2017-05-09T07:53:26.508Z,19.2
2017-05-09T07:54:34.593Z,19.2
2017-05-09T07:55:42.682Z,19.3
2017-05-09T07:56:50.764Z,19.3
2017-05-09T07:57:58.848Z,19.3
2017-05-09T07:59:06.940Z,19.3
2017-05-09T08:00:15.025Z,19.3
2017-05-09T08:01:23.111Z,19.2
2017-05-09T08:02:31.195Z,19.3
2017-05-09T08:03:39.281Z,19.2
2017-05-09T08:04:47.367Z,19.3
2017-05-09T08:05:55.451Z,19.3
2017-05-09T08:07:03.536Z,19.3
2017-05-09T08:08:11.621Z,19.3
2017-05-09T08:09:19.706Z,19.2
2017-05-09T08:10:27.795Z,19.2
2017-05-09T08:11:35.886Z,19.3
2017-05-09T08:12:43.979Z,19.3
2017-05-09T08:13:52.057Z,19.3
2017-05-09T08:15:00.147Z,19.4
2017-05-09T08:16:08.232Z,19.3
2017-05-09T08:17:16.320Z,19.2
2017-05-09T08:18:24.402Z,19.2
2017-05-09T08:19:32.486Z,19.3
2017-05-09T08:20:40.572Z,19.3
2017-05-09T08:21:48.659Z,19.3
2017-05-09T08:22:56.745Z,19.3
2017-05-09T08:24:04.833Z,19.3
2017-05-09T08:25:12.915Z,19.3
2017-05-09T08:26:21.003Z,19.3
2017-05-09T08:27:29.084Z,19.4
2017-05-09T08:28:37.169Z,19.4
2017-05-09T08:29:45.255Z,19.4
2017-05-09T08:30:53.340Z,19.4
2017-05-09T08:32:01.428Z,19.4
2017-05-09T08:33:09.513Z,19.4
2017-05-09T08:34:17.597Z,19.4
2017-05-09T08:35:25.683Z,19.4
2017-05-09T08:36:33.768Z,19.4
2017-05-09T08:37:41.870Z,19.4
2017-05-09T08:38:49.939Z,19.4
2017-05-09T08:39:58.026Z,19.4
2017-05-09T08:41:06.110Z,19.4
2017-05-09T08:42:14.200Z,19.4
2017-05-09T08:43:22.283Z,19.4
2017-05-09T08:44:30.367Z,19.4
2017-05-09T08:45:38.455Z,19.4
2017-05-09T08:46:46.539Z,19.4
2017-05-09T08:47:54.623Z,19.4
2017-05-09T08:49:02.708Z,19.4
2017-05-09T08:50:10.793Z,19.4
2017-05-09T08:51:18.880Z,19.5
2017-05-09T08:52:26.967Z,19.4
2017-05-09T08:53:35.051Z,19.5
2017-05-09T08:54:43.140Z,19.4
2017-05-09T08:55:51.224Z,19.5
2017-05-09T08:56:59.308Z,19.4
2017-05-09T08:58:07.406Z,19.4
2017-05-09T08:59:15.485Z,19.4
2017-05-09T09:00:23.597Z,19.5
2017-05-09T09:01:31.657Z,19.4
2017-05-09T09:02:39.743Z,19.4
2017-05-09T09:03:47.828Z,19.4
2017-05-09T09:04:55.912Z,19.4
2017-05-09T09:06:03.995Z,19.4
2017-05-09T09:07:12.083Z,19.4
2017-05-09T09:08:20.384Z,19.5
2017-05-09T09:09:28.256Z,19.4
2017-05-09T09:10:36.341Z,19.4
2017-05-09T09:11:44.430Z,19.4
2017-05-09T09:12:52.512Z,19.4
2017-05-09T09:14:00.595Z,19.4
2017-05-09T09:15:08.710Z,19.6
2017-05-09T09:16:16.774Z,19.5
2017-05-09T09:17:24.859Z,19.5
2017-05-09T09:18:32.946Z,19.5
2017-05-09T09:19:41.035Z,19.6
2017-05-09T09:20:49.122Z,19.5
2017-05-09T09:21:57.210Z,19.6
2017-05-09T09:23:05.292Z,19.6
2017-05-09T09:24:13.375Z,19.6
2017-05-09T09:25:21.463Z,19.5
2017-05-09T09:26:29.549Z,19.6
2017-05-09T09:27:37.635Z,19.6
2017-05-09T09:28:45.721Z,19.7
2017-05-09T09:29:53.855Z,19.6
2017-05-09T09:31:02.295Z,19.6
2017-05-09T09:32:09.978Z,19.7
2017-05-09T09:33:18.152Z,19.6
2017-05-09T09:34:26.147Z,19.7
2017-05-09T09:35:34.234Z,19.6
2017-05-09T09:36:42.318Z,19.5
2017-05-09T09:37:50.405Z,19.7
2017-05-09T09:38:58.490Z,19.7
2017-05-09T09:40:06.580Z,19.7
2017-05-09T09:41:14.664Z,19.7
2017-05-09T09:42:22.831Z,19.7
2017-05-09T09:43:30.842Z,19.7
2017-05-09T09:44:38.927Z,19.8
2017-05-09T09:45:47.011Z,19.8
2017-05-09T09:46:55.099Z,19.9
2017-05-09T09:48:03.185Z,19.8
2017-05-09T09:49:11.269Z,19.8
2017-05-09T09:50:19.354Z,19.9
2017-05-09T09:51:27.440Z,19.8
2017-05-09T09:52:35.526Z,19.9
2017-05-09T09:53:43.611Z,20.0
2017-05-09T09:54:51.696Z,19.9
2017-05-09T09:55:59.784Z,19.9
2017-05-09T09:57:07.868Z,19.9
2017-05-09T09:58:15.953Z,19.9
2017-05-09T09:59:25.038Z,20.0
2017-05-09T10:00:32.130Z,20.0
2017-05-09T10:01:40.210Z,20.0
2017-05-09T10:02:48.298Z,20.0
2017-05-09T10:03:56.380Z,20.0
2017-05-09T10:05:04.467Z,20.0
2017-05-09T10:06:12.553Z,20.1
2017-05-09T10:07:20.638Z,20.1
2017-05-09T10:08:28.724Z,20.0
2017-05-09T10:09:37.070Z,20.0
2017-05-09T10:10:44.901Z,20.0
2017-05-09T10:11:53.002Z,20.1
2017-05-09T10:13:01.075Z,20.1
2017-05-09T10:14:09.162Z,20.1
2017-05-09T10:15:17.246Z,20.1
2017-05-09T10:16:25.337Z,20.1
2017-05-09T10:17:33.420Z,20.1
2017-05-09T10:18:41.505Z,20.2
2017-05-09T10:19:49.587Z,20.2
2017-05-09T10:20:57.676Z,20.2
2017-05-09T10:22:05.760Z,20.1
2017-05-09T10:23:13.847Z,20.2
2017-05-09T10:24:21.936Z,20.2
2017-05-09T10:25:30.021Z,20.2
2017-05-09T10:26:39.103Z,20.3
2017-05-09T10:27:46.217Z,20.3
2017-05-09T10:28:54.699Z,20.2
2017-05-09T10:30:02.362Z,20.3
2017-05-09T10:31:10.448Z,20.3
2017-05-09T10:32:18.535Z,20.3
2017-05-09T10:33:26.619Z,20.2
2017-05-09T10:34:34.714Z,20.3
2017-05-09T10:35:42.792Z,20.3
2017-05-09T10:36:50.881Z,20.3
2017-05-09T10:37:58.965Z,20.3
2017-05-09T10:39:07.057Z,20.3
2017-05-09T10:40:15.134Z,20.4
2017-05-09T10:41:23.220Z,20.3
2017-05-09T10:42:31.308Z,20.3
2017-05-09T10:43:39.394Z,20.3
2017-05-09T10:44:47.480Z,20.3
2017-05-09T10:45:55.567Z,20.4
2017-05-09T10:47:03.652Z,20.4
2017-05-09T10:48:11.737Z,20.4
2017-05-09T10:49:19.823Z,20.4
2017-05-09T10:50:27.908Z,20.4
2017-05-09T10:51:35.996Z,20.4
2017-05-09T10:52:44.081Z,20.5
2017-05-09T10:53:52.168Z,20.5
2017-05-09T10:55:00.254Z,20.5
2017-05-09T10:56:08.341Z,20.4
2017-05-09T10:57:17.425Z,20.5
2017-05-09T10:58:24.513Z,20.5
2017-05-09T10:59:32.595Z,20.5
2017-05-09T11:00:40.685Z,20.4
2017-05-09T11:01:48.769Z,20.5
2017-05-09T11:02:56.857Z,20.5
2017-05-09T11:04:04.943Z,20.4
2017-05-09T11:05:13.040Z,20.5
2017-05-09T11:06:21.115Z,20.6
2017-05-09T11:07:29.202Z,20.5
2017-05-09T11:08:37.286Z,20.5
2017-05-09T11:09:45.371Z,20.5
2017-05-09T11:10:53.460Z,20.6
2017-05-09T11:12:01.544Z,20.5
2017-05-09T11:13:09.630Z,20.5
2017-05-09T11:14:17.719Z,20.4
2017-05-09T11:15:25.863Z,20.5
2017-05-09T11:16:33.892Z,20.5
2017-05-09T11:17:41.977Z,20.6
2017-05-09T11:18:50.062Z,20.6
2017-05-09T11:19:58.148Z,20.5
2017-05-09T11:21:06.233Z,20.6
2017-05-09T11:22:14.320Z,20.6
2017-05-09T11:23:22.406Z,20.6
2017-05-09T11:24:30.493Z,20.6
2017-05-09T11:25:38.582Z,20.6
2017-05-09T11:26:46.665Z,20.6
2017-05-09T11:27:54.751Z,20.6
2017-05-09T11:29:02.836Z,20.6
2017-05-09T11:30:10.923Z,20.6
2017-05-09T11:31:19.007Z,20.7
2017-05-09T11:32:27.096Z,20.7
2017-05-09T11:33:35.181Z,20.7
2017-05-09T11:34:43.268Z,20.6
2017-05-09T11:35:51.355Z,20.7
2017-05-09T11:36:59.443Z,20.7
2017-05-09T11:38:07.525Z,20.7
2017-05-09T11:39:15.612Z,20.8
2017-05-09T11:40:23.697Z,20.7
2017-05-09T11:41:31.785Z,20.7
2017-05-09T11:42:39.872Z,20.8
2017-05-09T11:43:47.957Z,20.7
2017-05-09T11:44:56.043Z,20.7
2017-05-09T11:46:04.128Z,20.8
2017-05-09T11:47:12.216Z,20.8
2017-05-09T11:48:20.301Z,20.8
2017-05-09T11:49:28.386Z,20.8
2017-05-09T11:50:36.475Z,20.8
2017-05-09T11:51:44.568Z,20.8
2017-05-09T11:52:52.648Z,20.8
2017-05-09T11:54:00.732Z,20.8
2017-05-09T11:55:08.820Z,20.8
2017-05-09T11:56:16.903Z,20.9
2017-05-09T11:57:24.992Z,20.9
2017-05-09T11:58:33.078Z,20.9
2017-05-09T11:59:41.166Z,20.9
2017-05-09T12:00:49.251Z,20.9
2017-05-09T12:01:57.337Z,20.9
2017-05-09T12:03:05.425Z,20.9
2017-05-09T12:04:13.510Z,20.9
2017-05-09T12:05:21.599Z,20.9
2017-05-09T12:06:29.682Z,20.9
2017-05-09T12:07:37.769Z,20.9
2017-05-09T12:08:45.855Z,20.9
2017-05-09T12:09:53.944Z,21.0
2017-05-09T12:11:02.029Z,20.9
2017-05-09T12:12:10.122Z,20.9
2017-05-09T12:13:18.203Z,20.9
2017-05-09T12:14:26.290Z,20.9
2017-05-09T12:15:34.376Z,21.0
2017-05-09T12:16:42.462Z,21.0
2017-05-09T12:17:50.548Z,21.0
2017-05-09T12:18:58.633Z,21.0
2017-05-09T12:20:06.745Z,21.0
2017-05-09T12:21:14.809Z,21.0
2017-05-09T12:22:22.894Z,21.0
2017-05-09T12:23:30.986Z,21.1
2017-05-09T12:24:39.079Z,21.1
2017-05-09T12:25:47.162Z,21.0
2017-05-09T12:26:55.252Z,21.0
2017-05-09T12:28:03.336Z,21.1
2017-05-09T12:29:11.423Z,21.0
2017-05-09T12:30:19.509Z,21.1
2017-05-09T12:31:27.595Z,21.0
2017-05-09T12:32:35.691Z,21.0
2017-05-09T12:33:43.774Z,21.1
2017-05-09T12:34:51.859Z,21.2
2017-05-09T12:35:59.947Z,21.2
2017-05-09T12:37:08.118Z,21.1
2017-05-09T12:38:16.127Z,21.2
2017-05-09T12:39:24.212Z,21.2
2017-05-09T12:40:32.297Z,21.1
2017-05-09T12:41:40.388Z,21.1
2017-05-09T12:42:48.473Z,21.2
2017-05-09T12:43:56.562Z,21.1
2017-05-09T12:45:04.653Z,21.1
2017-05-09T12:46:12.735Z,21.2
2017-05-09T12:47:20.823Z,21.2
2017-05-09T12:48:28.914Z,21.3
2017-05-09T12:49:37.000Z,21.2
2017-05-09T12:50:45.089Z,21.3
2017-05-09T12:51:53.174Z,21.3
2017-05-09T12:53:01.266Z,21.2
2017-05-09T12:54:09.352Z,21.3
2017-05-09T12:55:17.438Z,21.2
2017-05-09T12:56:25.527Z,21.3
2017-05-09T12:57:33.615Z,21.2
2017-05-09T12:58:41.698Z,21.3
2017-05-09T12:59:49.783Z,21.3
2017-05-09T13:00:57.871Z,21.3
2017-05-09T13:02:05.957Z,21.3
2017-05-09T13:03:14.052Z,21.4
2017-05-09T13:04:22.142Z,21.3
2017-05-09T13:05:30.224Z,21.3
2017-05-09T13:06:38.314Z,21.4
2017-05-09T13:07:46.399Z,21.3
2017-05-09T13:08:54.489Z,21.3
2017-05-09T13:10:02.572Z,21.4
2017-05-09T13:11:10.660Z,21.3
2017-05-09T13:12:18.810Z,21.4
2017-05-09T13:13:26.835Z,21.4
2017-05-09T13:14:34.920Z,21.4
2017-05-09T13:15:43.010Z,21.4
2017-05-09T13:16:51.096Z,21.4
2017-05-09T13:17:59.190Z,21.4
2017-05-09T13:19:07.269Z,21.4
2017-05-09T13:20:15.355Z,21.4
2017-05-09T13:21:23.440Z,21.4
2017-05-09T13:22:31.529Z,21.3
2017-05-09T13:23:39.617Z,21.4
2017-05-09T13:24:47.702Z,21.4
2017-05-09T13:25:55.788Z,21.4
2017-05-09T13:27:03.874Z,21.4
2017-05-09T13:28:11.958Z,21.4
2017-05-09T13:29:20.044Z,21.5
2017-05-09T13:30:28.134Z,21.5
2017-05-09T13:31:36.220Z,21.5
2017-05-09T13:32:44.306Z,21.5
2017-05-09T13:33:52.393Z,21.4
2017-05-09T13:35:00.493Z,21.5
2017-05-09T13:36:08.569Z,21.5
2017-05-09T13:37:16.655Z,21.5
2017-05-09T13:38:24.737Z,21.5
2017-05-09T13:39:32.827Z,21.5
2017-05-09T13:40:40.912Z,21.6
2017-05-09T13:41:49.000Z,21.6
2017-05-09T13:42:57.091Z,21.5
2017-05-09T13:44:05.181Z,21.5
2017-05-09T13:45:13.264Z,21.5
2017-05-09T13:46:21.354Z,21.5
2017-05-09T13:47:29.496Z,21.5
2017-05-09T13:48:37.525Z,21.5
2017-05-09T13:49:45.611Z,21.6
2017-05-09T13:50:53.697Z,21.5
2017-05-09T13:52:01.785Z,21.5
2017-05-09T13:53:09.880Z,21.5
2017-05-09T13:54:17.958Z,21.5
2017-05-09T13:55:26.045Z,21.5
2017-05-09T13:56:34.135Z,21.5
2017-05-09T13:57:42.220Z,21.5
2017-05-09T13:58:50.305Z,21.5
2017-05-09T13:59:58.392Z,21.5
2017-05-09T14:01:06.482Z,21.5
2017-05-09T14:02:14.600Z,21.5
2017-05-09T14:03:22.664Z,21.5
2017-05-09T14:04:30.740Z,21.5
2017-05-09T14:05:38.828Z,21.5
2017-05-09T14:06:46.911Z,21.6
2017-05-09T14:07:54.998Z,21.6
2017-05-09T14:09:03.084Z,21.6
2017-05-09T14:10:12.173Z,21.5
2017-05-09T14:11:19.265Z,21.5
2017-05-09T14:12:27.347Z,21.5
2017-05-09T14:13:35.433Z,21.6
2017-05-09T14:14:43.521Z,21.5
2017-05-09T14:15:51.605Z,21.6
2017-05-09T14:16:59.692Z,21.5
2017-05-09T14:18:07.775Z,21.5
2017-05-09T14:19:15.865Z,21.5
2017-05-09T14:20:23.954Z,21.5
2017-05-09T14:21:32.044Z,21.5
2017-05-09T14:22:40.129Z,21.5
2017-05-09T14:23:48.216Z,21.5
2017-05-09T14:24:56.302Z,21.5
2017-05-09T14:26:04.385Z,21.6
2017-05-09T14:27:12.475Z,21.5
2017-05-09T14:28:20.561Z,21.6
2017-05-09T14:29:28.653Z,21.5
2017-05-09T14:30:36.766Z,21.5
2017-05-09T14:31:44.822Z,21.6
2017-05-09T14:32:52.909Z,21.5
2017-05-09T14:34:01.008Z,21.5
2017-05-09T14:35:09.096Z,21.5
2017-05-09T14:36:17.176Z,21.5
2017-05-09T14:37:25.269Z,21.5
2017-05-09T14:38:33.365Z,21.6
2017-05-09T14:39:41.446Z,21.5
2017-05-09T14:40:49.522Z,21.6
2017-05-09T14:41:57.613Z,21.5
2017-05-09T14:43:05.696Z,21.5
2017-05-09T14:44:13.785Z,21.5
2017-05-09T14:45:21.871Z,21.6
2017-05-09T14:46:29.957Z,21.5
2017-05-09T14:47:38.043Z,21.5
2017-05-09T14:48:46.133Z,21.5
2017-05-09T14:49:54.219Z,21.5
2017-05-09T14:51:02.306Z,21.5
2017-05-09T14:52:10.392Z,21.6
2017-05-09T14:53:18.485Z,21.5
2017-05-09T14:54:26.576Z,21.5
2017-05-09T14:55:34.665Z,21.5
2017-05-09T14:56:42.752Z,21.6
2017-05-09T14:57:51.837Z,21.5
2017-05-09T14:58:58.923Z,21.5
2017-05-09T15:00:07.010Z,21.6
2017-05-09T15:01:15.097Z,21.5
2017-05-09T15:02:23.184Z,21.5
2017-05-09T15:03:31.270Z,21.5
2017-05-09T15:04:39.356Z,21.5
2017-05-09T15:05:47.445Z,21.5
2017-05-09T15:06:55.529Z,21.5